首页
METAR-TAF:

METAR-TAF

机场 :

萨斯卡通约翰·乔治·迪芬贝克国际机场

萨斯卡通, 薩斯喀徹溫, 加拿大

纬度: 52-10N, 经度: 106-41W, 海拔: 501米

当前天气观测

该预报发布于31分钟前的10:00 UTC
风速6节,风向南转南东
温度 13°C
湿度 54%
气压 1011 hPa
能見度: 24.1公里
天空无云

METAR: CYXE 191000Z 16006KT 15SM SKC 13/04 A2985 RMK SLP116 DENSITY ALT 1900FT

时间: 04:31 (10:31 UTC)

预报

该预报发布于4小时和53分钟前的05:38 UTC
预报有效从19日的 06点(UTC)到 20日的 06点(UTC)
风速8节,风向南转南东
能見度: 10公里
天空无云
从 19日的 1600点(UTC)
风速15节,风向南转南东,有时为25节阵风
能見度: 10公里
散云层高于24000英尺
从 19日的 2200点(UTC)
风速18节,风向,有时为28节阵风
能見度: 10公里
散云层高于15000英尺
多云层高于20000英尺
从 20日的 0200点(UTC)
风速12节,风向南转南东
能見度: 10公里
多云层高于15000英尺

TAF: CYXE 190538Z 1906/2006 15008KT P6SM SKC FM191600 15015G25KT P6SM SCT240 FM192200 17018G28KT P6SM SCT150 BKN200 FM200200 15012KT P6SM BKN150 RMK NXT FCST BY 191200Z

超过4000个机场的气象观测和天气预报(METAR&TAF报告)。

可查询的气象台以黄色和红色小点在地图上表示。

将鼠标移到小点上方,可查看气象台名称。

然后点击查看天气观测和预报。

如需切换地图:点击带黑十字的绿色按钮放大地图;点击带横线的绿色按钮缩小地图;或者点击绿色箭头查看邻近地区的地图。


METAR-TAF: